Time;durP1;ratioP1;P1;durP2;ratioP2;P2;SDS_P1;SDS_P2;PMS_P1;PMS_P2;Temp;Humidity;BMP_temperature;BMP_pressure;BME280_temperature;BME280_humidity;BME280_pressure;Samples;Min_cycle;Max_cycle;Signal;HPM_P1;HPM_P2
2023/10/19 00:01:45;;;;;;;;;52.00;42.25;;;;;9.49;100.00;98141.69;6184270;28;96442;-63
2023/10/19 00:04:49;;;;;;;;;51.50;42.75;;;;;9.51;100.00;98145.78;6242034;27;96912;-62
2023/10/19 00:07:53;;;;;;;;;56.00;44.75;;;;;9.54;100.00;98142.63;6202757;28;96302;-63
2023/10/19 00:11:02;;;;;;;;;50.50;41.50;;;;;9.58;100.00;98141.09;6207877;28;96891;-62
2023/10/19 00:14:15;;;;;;;;;53.40;43.40;;;;;9.60;100.00;98140.88;6256152;27;96661;-62
2023/10/19 00:17:21;;;;;;;;;52.80;43.00;;;;;9.63;100.00;98136.91;6212654;28;96356;-62
2023/10/19 00:20:36;;;;;;;;;62.00;48.80;;;;;9.64;100.00;98143.91;6200910;28;96354;-62
2023/10/19 00:23:40;;;;;;;;;52.40;44.00;;;;;9.68;100.00;98147.78;6253412;27;96613;-62
2023/10/19 00:26:44;;;;;;;;;55.00;44.00;;;;;9.66;100.00;98139.13;6277052;27;96812;-62
2023/10/19 00:29:50;;;;;;;;;52.60;44.00;;;;;9.70;100.00;98137.59;6188595;28;96191;-62
2023/10/19 00:32:54;;;;;;;;;50.00;41.00;;;;;9.69;100.00;98135.97;6254668;27;97043;-63
2023/10/19 00:36:07;;;;;;;;;50.00;42.00;;;;;9.67;100.00;98140.78;6259323;27;96532;-62
2023/10/19 00:39:16;;;;;;;;;55.00;44.00;;;;;9.59;100.00;98128.47;6237264;27;96818;-62
2023/10/19 00:42:23;;;;;;;;;53.00;44.00;;;;;9.58;100.00;98121.44;6186997;28;96340;-62
2023/10/19 00:45:27;;;;;;;;;53.00;43.75;;;;;9.56;100.00;98119.00;6206020;28;96461;-62
2023/10/19 00:48:34;;;;;;;;;53.00;43.00;;;;;9.53;100.00;98113.25;6279965;27;96510;-62
2023/10/19 00:51:50;;;;;;;;;49.00;40.00;;;;;9.49;100.00;98099.47;6210786;28;97076;-62
2023/10/19 00:54:55;;;;;;;;;51.25;40.75;;;;;9.49;100.00;98102.16;6273235;27;96440;-62
2023/10/19 00:57:58;;;;;;;;;52.67;43.67;;;;;9.47;100.00;98096.19;6280620;27;96874;-62
2023/10/19 01:01:05;;;;;;;;;52.80;42.40;;;;;9.44;100.00;98091.28;6212062;28;96255;-66
2023/10/19 01:04:13;;;;;;;;;48.75;40.50;;;;;9.39;100.00;98085.75;6235941;22;96227;-70
2023/10/19 01:07:22;;;;;;;;;52.60;42.60;;;;;9.26;100.00;98083.31;6238206;28;96322;-70
2023/10/19 01:10:28;;;;;;;;;50.50;42.75;;;;;9.40;100.00;98091.97;6203343;28;98527;-70
2023/10/19 01:13:34;;;;;;;;;52.00;43.00;;;;;9.36;100.00;98082.72;6239072;28;96383;-70
2023/10/19 01:16:38;;;;;;;;;50.00;42.00;;;;;9.33;100.00;98072.44;6237499;28;96668;-71
2023/10/19 01:19:43;;;;;;;;;55.67;44.00;;;;;9.33;100.00;98053.63;6238068;28;96542;-70
2023/10/19 01:23:07;;;;;;;;;52.80;43.00;;;;;9.35;100.00;98059.56;6238252;27;96405;-70
2023/10/19 01:26:18;;;;;;;;;56.00;46.00;;;;;9.27;100.00;98049.16;6212352;28;96675;-71
2023/10/19 01:29:26;;;;;;;;;52.80;43.40;;;;;9.16;100.00;98045.41;6219316;28;96878;-70
2023/10/19 01:32:30;;;;;;;;;56.00;44.80;;;;;9.12;100.00;98038.88;6219783;28;97431;-70
2023/10/19 01:38:53;;;;;;;;;55.80;44.20;;;;;9.13;100.00;98038.66;6219133;28;96431;-69
2023/10/19 01:41:57;;;;;;;;;55.75;45.75;;;;;9.10;100.00;98039.09;6238060;28;97249;-70
2023/10/19 01:45:00;;;;;;;;;57.50;45.75;;;;;9.13;100.00;98029.75;6218604;28;96877;-70
2023/10/19 01:48:06;;;;;;;;;54.80;44.00;;;;;9.17;100.00;98025.56;6203186;28;98594;-71
2023/10/19 01:51:12;;;;;;;;;55.00;44.80;;;;;9.20;100.00;98025.06;6219569;28;96876;-71
2023/10/19 01:54:18;;;;;;;;;60.40;47.40;;;;;9.21;100.00;98020.50;6237849;28;96213;-70
2023/10/19 01:57:21;;;;;;;;;58.75;45.25;;;;;9.14;100.00;98015.25;6237004;28;97003;-70
2023/10/19 02:00:23;;;;;;;;;55.20;45.20;;;;;9.12;100.00;98010.13;6217793;28;96313;-71
2023/10/19 02:03:28;;;;;;;;;56.25;45.25;;;;;9.13;100.00;98009.06;6219341;28;96322;-70
2023/10/19 02:06:36;;;;;;;;;56.20;46.00;;;;;9.19;100.00;98006.50;6222673;28;96755;-71
2023/10/19 02:09:40;;;;;;;;;55.20;44.20;;;;;9.21;100.00;97993.63;6211716;28;96349;-71
2023/10/19 02:12:46;;;;;;;;;56.00;44.25;;;;;9.23;100.00;97999.59;6213054;28;96923;-70
2023/10/19 02:15:51;;;;;;;;;56.60;45.00;;;;;9.19;100.00;97983.09;6194948;28;96467;-70
2023/10/19 02:18:54;;;;;;;;;53.00;43.25;;;;;9.12;100.00;97990.47;6194108;28;99088;-70
2023/10/19 02:21:59;;;;;;;;;50.60;40.60;;;;;9.04;100.00;97982.78;6194646;28;96309;-71
2023/10/19 02:25:05;;;;;;;;;56.00;45.00;;;;;8.95;100.00;97979.59;6230952;28;96644;-71
2023/10/19 02:28:09;;;;;;;;;52.20;42.00;;;;;8.96;100.00;97972.34;6234010;28;97955;-71
2023/10/19 02:31:15;;;;;;;;;46.50;38.75;;;;;8.85;100.00;97965.91;6215483;28;97467;-71
2023/10/19 02:34:18;;;;;;;;;52.00;43.00;;;;;8.83;100.00;97965.34;6216825;27;97962;-71
2023/10/19 02:37:21;;;;;;;;;53.00;43.50;;;;;8.81;100.00;97962.06;6224103;28;96531;-71
2023/10/19 02:40:31;;;;;;;;;47.50;40.00;;;;;8.77;100.00;97963.56;6193995;28;96556;-71
2023/10/19 02:43:35;;;;;;;;;53.00;42.00;;;;;8.64;100.00;97945.81;6218140;28;96616;-71
2023/10/19 02:46:39;;;;;;;;;53.00;43.00;;;;;8.65;100.00;97947.44;6218334;28;97159;-71
2023/10/19 02:49:44;;;;;;;;;45.80;35.80;;;;;8.68;100.00;97933.56;6210100;28;97040;-70
2023/10/19 02:52:47;;;;;;;;;47.00;39.00;;;;;8.70;100.00;97944.06;6193353;28;97659;-70
2023/10/19 02:55:52;;;;;;;;;49.60;40.60;;;;;8.57;100.00;97934.34;6220831;28;96654;-71
2023/10/19 02:59:02;;;;;;;;;53.00;42.00;;;;;8.57;100.00;97925.47;6235713;28;97728;-71
2023/10/19 03:02:16;;;;;;;;;53.60;44.60;;;;;8.55;100.00;97936.44;6211738;28;96744;-71
2023/10/19 03:05:19;;;;;;;;;54.00;43.50;;;;;8.58;100.00;97935.19;6236603;28;96411;-71
2023/10/19 03:08:25;;;;;;;;;46.60;38.60;;;;;8.56;100.00;97931.88;6235868;28;96442;-71
2023/10/19 03:11:32;;;;;;;;;49.00;41.00;;;;;8.57;100.00;97928.97;6235077;28;96535;-71
2023/10/19 03:14:34;;;;;;;;;51.50;42.75;;;;;8.56;100.00;97921.16;6236413;28;96884;-71
2023/10/19 03:17:39;;;;;;;;;49.00;40.80;;;;;8.57;100.00;97909.34;6198393;28;97768;-71
2023/10/19 03:20:44;;;;;;;;;49.40;40.60;;;;;8.57;100.00;97907.50;6211984;28;96242;-71
2023/10/19 03:23:49;;;;;;;;;52.50;44.00;;;;;8.60;100.00;97893.56;6200656;28;96395;-71
2023/10/19 03:26:54;;;;;;;;;53.20;43.20;;;;;8.50;100.00;97889.88;6198560;28;96973;-70
2023/10/19 03:29:59;;;;;;;;;49.00;41.00;;;;;8.42;100.00;97896.38;6210092;28;97242;-70
2023/10/19 03:33:03;;;;;;;;;49.00;40.00;;;;;8.39;100.00;97890.66;6225236;28;98598;-70
2023/10/19 03:36:12;;;;;;;;;49.60;40.40;;;;;8.35;100.00;97884.13;6218006;28;97078;-71
2023/10/19 03:39:17;;;;;;;;;50.00;42.00;;;;;8.25;100.00;97880.13;6217941;28;96350;-71
2023/10/19 03:42:26;;;;;;;;;52.40;42.00;;;;;8.16;100.00;97864.56;6209952;28;96681;-71
2023/10/19 03:45:33;;;;;;;;;55.00;43.00;;;;;8.24;100.00;97867.72;6232478;28;96236;-71
2023/10/19 03:48:38;;;;;;;;;49.00;41.00;;;;;8.26;100.00;97860.25;6222529;28;96342;-71
2023/10/19 03:51:58;;;;;;;;;49.80;40.60;;;;;8.35;100.00;97839.28;6239914;28;97051;-71
2023/10/19 03:55:01;;;;;;;;;47.80;39.40;;;;;8.39;100.00;97836.94;6220994;28;96709;-69
2023/10/19 03:58:06;;;;;;;;;48.50;41.00;;;;;8.32;100.00;97823.63;6220399;28;97025;-70
2023/10/19 04:01:10;;;;;;;;;50.80;42.40;;;;;8.41;100.00;97824.91;6238115;28;96317;-70
2023/10/19 04:04:16;;;;;;;;;50.00;42.00;;;;;8.39;100.00;97818.97;6235751;28;96535;-70
2023/10/19 04:07:21;;;;;;;;;51.75;42.00;;;;;8.38;100.00;97811.13;6240054;28;96779;-71
2023/10/19 04:13:53;;;;;;;;;49.50;40.00;;;;;8.43;100.00;97820.13;6347896;27;96627;-70
2023/10/19 04:16:57;;;;;;;;;50.20;42.00;;;;;8.53;100.00;97814.19;6324449;27;97061;-70
2023/10/19 04:20:08;;;;;;;;;50.50;41.00;;;;;8.62;100.00;97807.38;6315670;27;96555;-70
2023/10/19 04:23:14;;;;;;;;;49.00;41.00;;;;;8.74;100.00;97805.53;6322577;27;96379;-70
2023/10/19 04:26:19;;;;;;;;;51.60;40.80;;;;;8.69;100.00;97794.66;6327613;27;97083;-70
2023/10/19 04:29:27;;;;;;;;;47.25;40.00;;;;;8.74;100.00;97800.16;6308525;27;98395;-70
2023/10/19 04:32:31;;;;;;;;;48.80;40.60;;;;;8.73;100.00;97801.19;6323390;27;96651;-70
2023/10/19 04:35:35;;;;;;;;;49.75;40.25;;;;;8.70;100.00;97798.97;6292998;27;96659;-70
2023/10/19 04:38:38;;;;;;;;;49.00;41.00;;;;;8.66;100.00;97793.25;6282411;27;96632;-67
2023/10/19 04:41:41;;;;;;;;;50.00;41.00;;;;;8.66;100.00;97782.50;6305216;27;96468;-71
2023/10/19 04:44:48;;;;;;;;;49.00;40.75;;;;;8.72;100.00;97775.38;6299746;27;96386;-70
2023/10/19 04:47:54;;;;;;;;;47.60;39.00;;;;;8.81;100.00;97779.31;6308049;27;96332;-70
2023/10/19 04:50:58;;;;;;;;;48.60;40.00;;;;;8.90;100.00;97775.19;6305300;27;96527;-70
2023/10/19 04:54:02;;;;;;;;;53.40;41.60;;;;;8.93;100.00;97768.56;6305272;27;97144;-70
2023/10/19 04:57:05;;;;;;;;;46.20;39.00;;;;;8.99;100.00;97765.69;6303925;27;96699;-70
2023/10/19 05:00:13;;;;;;;;;47.00;38.00;;;;;9.06;100.00;97770.94;6299362;27;96662;-69
2023/10/19 05:03:18;;;;;;;;;47.80;40.00;;;;;9.12;100.00;97760.06;6269779;27;98236;-69
2023/10/19 05:06:22;;;;;;;;;47.20;39.00;;;;;9.11;100.00;97766.50;6293488;27;98158;-70
2023/10/19 05:09:25;;;;;;;;;47.00;40.00;;;;;9.13;100.00;97760.88;6298698;27;96494;-70
2023/10/19 05:12:28;;;;;;;;;44.75;36.25;;;;;9.09;100.00;97768.59;6300695;27;96550;-70
2023/10/19 05:15:33;;;;;;;;;49.00;39.25;;;;;9.04;100.00;97762.31;6307551;27;96475;-70
2023/10/19 05:18:36;;;;;;;;;48.80;39.80;;;;;9.17;100.00;97767.41;6294622;27;96631;-71
2023/10/19 05:21:40;;;;;;;;;49.60;40.60;;;;;9.21;100.00;97760.50;6298636;27;96900;-69
2023/10/19 05:24:43;;;;;;;;;46.60;39.00;;;;;9.22;100.00;97766.69;6270203;27;96644;-69
2023/10/19 05:27:46;;;;;;;;;50.00;41.00;;;;;9.19;100.00;97759.13;6266894;27;97262;-69
2023/10/19 05:30:51;;;;;;;;;43.40;36.00;;;;;9.24;100.00;97775.31;6251748;27;97643;-70
2023/10/19 05:33:54;;;;;;;;;45.00;38.00;;;;;9.27;100.00;97773.00;6286983;27;97183;-69
2023/10/19 05:36:58;;;;;;;;;44.75;36.75;;;;;9.36;100.00;97776.09;6268987;27;96924;-69
2023/10/19 05:40:04;;;;;;;;;45.00;36.40;;;;;9.45;100.00;97769.28;6289894;27;96341;-70
2023/10/19 05:43:08;;;;;;;;;41.00;35.25;;;;;9.45;100.00;97762.03;6253351;27;97905;-69
2023/10/19 05:46:13;;;;;;;;;44.00;36.00;;;;;9.51;100.00;97761.06;6289576;27;96559;-70
2023/10/19 05:49:17;;;;;;;;;40.00;34.75;;;;;9.53;100.00;97756.22;6288850;27;96388;-70
2023/10/19 05:52:20;;;;;;;;;42.20;34.20;;;;;9.44;100.00;97752.31;6289772;27;96679;-65
2023/10/19 05:55:23;;;;;;;;;36.20;33.00;;;;;9.47;100.00;97753.72;6254886;27;96871;-65
2023/10/19 05:58:26;;;;;;;;;36.00;32.00;;;;;9.49;100.00;97741.63;6290427;27;96401;-64
2023/10/19 06:01:31;;;;;;;;;37.00;31.00;;;;;9.50;100.00;97743.28;6254595;27;96705;-65
2023/10/19 06:04:34;;;;;;;;;44.00;36.00;;;;;9.42;100.00;97730.22;6271654;27;96736;-64
2023/10/19 06:07:38;;;;;;;;;40.00;35.00;;;;;9.41;100.00;97735.84;6288885;27;96469;-64
2023/10/19 06:10:42;;;;;;;;;39.60;34.60;;;;;9.45;100.00;97735.13;6290022;27;96402;-65
2023/10/19 06:13:45;;;;;;;;;38.60;33.00;;;;;9.67;100.00;97737.09;6270178;27;98301;-64
2023/10/19 06:16:50;;;;;;;;;41.75;35.75;;;;;9.81;100.00;97743.81;6289919;27;96300;-65
2023/10/19 06:19:53;;;;;;;;;39.80;33.00;;;;;9.97;100.00;97724.94;6289261;27;97043;-64
2023/10/19 06:23:03;;;;;;;;;37.00;33.00;;;;;10.28;100.00;97725.41;6271463;27;96502;-64
2023/10/19 06:26:12;;;;;;;;;44.00;37.00;;;;;10.93;100.00;97728.16;6287875;27;96259;-64
2023/10/19 06:29:15;;;;;;;;;42.00;35.00;;;;;11.71;100.00;97714.13;6278117;27;96563;-64
2023/10/19 06:32:20;;;;;;;;;39.40;33.40;;;;;12.55;100.00;97707.97;6271493;27;96353;-64
2023/10/19 06:35:24;;;;;;;;;36.00;32.00;;;;;12.97;100.00;97714.06;6287908;27;96450;-64
2023/10/19 06:38:27;;;;;;;;;32.40;30.00;;;;;13.07;100.00;97707.06;6252372;27;96743;-64
2023/10/19 06:41:30;;;;;;;;;42.50;35.00;;;;;13.76;100.00;97697.47;6289369;27;96277;-64
2023/10/19 06:44:33;;;;;;;;;35.00;32.00;;;;;14.41;100.00;97690.38;6260822;27;96313;-64
2023/10/19 06:47:38;;;;;;;;;38.00;33.00;;;;;15.78;100.00;97686.97;6237628;27;97284;-64
2023/10/19 06:50:41;;;;;;;;;41.20;34.60;;;;;17.81;100.00;97675.25;6270670;27;97524;-65
2023/10/19 06:53:50;;;;;;;;;39.50;33.50;;;;;18.41;94.54;97675.31;6289295;27;96350;-66
2023/10/19 06:56:53;;;;;;;;;37.00;33.00;;;;;19.50;89.89;97647.91;6270257;27;96578;-66
2023/10/19 06:59:56;;;;;;;;;33.00;30.00;;;;;20.48;83.19;97676.09;6288499;27;96555;-67
2023/10/19 07:03:01;;;;;;;;;33.50;31.00;;;;;20.53;78.54;97654.03;6287495;27;96574;-71
2023/10/19 07:06:07;;;;;;;;;32.40;30.00;;;;;20.46;79.61;97658.38;6244592;27;96850;-71
2023/10/19 07:09:15;;;;;;;;;29.00;27.40;;;;;20.59;78.00;97655.53;6266182;27;96662;-70
2023/10/19 07:12:19;;;;;;;;;33.25;30.00;;;;;21.14;72.14;97653.13;6265504;27;96445;-71
2023/10/19 07:15:25;;;;;;;;;28.00;25.80;;;;;22.02;66.86;97636.38;6262045;27;96411;-71
2023/10/19 07:18:29;;;;;;;;;28.80;25.80;;;;;23.40;58.42;97631.03;6262909;27;96524;-71
2023/10/19 07:21:35;;;;;;;;;30.00;26.60;;;;;24.56;49.59;97634.47;6263761;27;98543;-71
2023/10/19 07:24:38;;;;;;;;;31.20;28.00;;;;;25.28;48.35;97626.50;6252325;27;96705;-70
2023/10/19 07:27:42;;;;;;;;;26.80;23.20;;;;;24.95;47.50;97629.44;6288252;27;96277;-71
2023/10/19 07:30:46;;;;;;;;;29.00;26.00;;;;;24.18;52.33;97617.41;6251803;27;96913;-70
2023/10/19 07:33:50;;;;;;;;;28.40;27.40;;;;;23.32;54.10;97618.94;6287723;27;96405;-70
2023/10/19 07:36:54;;;;;;;;;30.40;27.40;;;;;23.19;58.26;97605.47;6268237;27;96665;-71
2023/10/19 07:39:57;;;;;;;;;28.00;24.50;;;;;22.61;58.91;97611.78;6269921;27;96869;-70
2023/10/19 07:43:01;;;;;;;;;30.00;26.25;;;;;23.30;57.94;97598.44;6287153;27;96387;-70
2023/10/19 07:46:04;;;;;;;;;29.00;26.00;;;;;24.49;48.91;97601.16;6287716;27;96513;-70
2023/10/19 07:49:09;;;;;;;;;23.00;22.20;;;;;25.16;45.36;97594.25;6286820;27;98003;-71
2023/10/19 07:52:12;;;;;;;;;25.00;24.00;;;;;24.55;47.21;97587.94;6269384;27;96681;-71
2023/10/19 07:55:16;;;;;;;;;23.60;22.00;;;;;23.41;52.53;97598.84;6285188;27;96472;-70
2023/10/19 07:58:19;;;;;;;;;26.00;23.20;;;;;21.99;62.20;97598.63;6251007;27;96595;-70
2023/10/19 08:01:22;;;;;;;;;27.25;25.00;;;;;20.92;70.30;97598.41;6285861;27;96369;-71
2023/10/19 08:04:28;;;;;;;;;26.50;24.00;;;;;20.28;77.24;97584.34;6285048;27;97291;-70
2023/10/19 08:07:31;;;;;;;;;27.40;25.00;;;;;19.81;78.93;97590.56;6266714;27;96848;-70
2023/10/19 08:10:35;;;;;;;;;23.60;21.00;;;;;19.45;83.82;97564.09;6266633;27;99711;-71
2023/10/19 08:13:39;;;;;;;;;30.25;27.00;;;;;19.33;84.03;97580.25;6267677;27;96884;-71
2023/10/19 08:16:43;;;;;;;;;26.00;24.50;;;;;19.20;84.42;97570.19;6286937;27;96396;-71
2023/10/19 08:19:48;;;;;;;;;27.00;26.00;;;;;18.81;86.42;97565.34;6287240;27;96244;-71
2023/10/19 08:22:52;;;;;;;;;29.60;28.00;;;;;18.31;90.83;97567.19;6268761;27;96342;-71
2023/10/19 08:25:56;;;;;;;;;29.00;26.00;;;;;17.82;92.72;97567.03;6242918;27;96807;-71
2023/10/19 08:28:59;;;;;;;;;29.00;27.00;;;;;17.57;95.26;97565.53;6243027;27;98351;-70
2023/10/19 08:32:03;;;;;;;;;25.00;24.40;;;;;18.09;93.67;97539.78;6225965;27;97028;-70
2023/10/19 08:35:08;;;;;;;;;30.00;28.40;;;;;19.15;90.16;97542.97;6279038;27;96338;-71
2023/10/19 08:38:12;;;;;;;;;26.80;24.00;;;;;19.45;86.27;97535.97;6269019;27;96269;-71
2023/10/19 08:41:16;;;;;;;;;27.00;24.40;;;;;20.05;84.13;97538.22;6286657;27;97039;-71
2023/10/19 08:44:19;;;;;;;;;28.60;26.00;;;;;19.94;82.79;97534.19;6285364;27;96691;-71
2023/10/19 08:47:25;;;;;;;;;29.00;26.40;;;;;19.51;86.33;97523.78;6286660;27;97000;-71
2023/10/19 08:50:31;;;;;;;;;31.00;29.00;;;;;18.98;90.44;97523.72;6284636;27;97650;-70
2023/10/19 08:53:39;;;;;;;;;29.00;28.00;;;;;18.64;92.00;97524.22;6249765;27;96687;-70
2023/10/19 08:56:44;;;;;;;;;27.60;26.60;;;;;18.42;95.52;97524.91;6283611;27;96406;-69
2023/10/19 08:59:48;;;;;;;;;27.00;27.00;;;;;18.29;96.56;97511.28;6267333;27;98864;-70
2023/10/19 09:02:52;;;;;;;;;33.00;30.00;;;;;17.99;96.47;97513.53;6268898;27;97351;-70
2023/10/19 09:05:57;;;;;;;;;32.00;29.80;;;;;17.76;100.00;97514.53;6287961;27;96489;-70
2023/10/19 09:09:00;;;;;;;;;29.67;27.67;;;;;17.59;100.00;97517.03;6269185;27;96704;-70
2023/10/19 09:12:03;;;;;;;;;30.25;29.25;;;;;17.38;100.00;97497.47;6289563;27;96595;-70
2023/10/19 09:15:22;;;;;;;;;34.40;31.00;;;;;17.04;100.00;97486.06;6271657;27;96639;-70
2023/10/19 09:18:28;;;;;;;;;33.40;31.00;;;;;16.82;100.00;97494.84;6271791;27;96635;-71
2023/10/19 09:21:34;;;;;;;;;39.67;33.00;;;;;16.56;100.00;97497.13;6288580;27;96604;-72
2023/10/19 09:24:38;;;;;;;;;28.20;28.20;;;;;16.26;100.00;97489.38;6271127;27;98416;-72
2023/10/19 09:27:42;;;;;;;;;32.40;30.00;;;;;16.12;100.00;97499.34;6254464;27;98469;-72
2023/10/19 09:30:45;;;;;;;;;34.00;31.00;;;;;16.05;100.00;97499.69;6254426;27;96712;-72
2023/10/19 09:33:49;;;;;;;;;33.40;30.00;;;;;16.02;100.00;97497.56;6270489;27;97029;-72
2023/10/19 09:36:54;;;;;;;;;35.00;30.00;;;;;15.91;100.00;97496.88;6271724;27;96400;-72
2023/10/19 09:39:58;;;;;;;;;40.40;33.40;;;;;15.78;100.00;97491.31;6272315;27;96392;-72
2023/10/19 09:43:06;;;;;;;;;33.00;29.40;;;;;15.58;100.00;97486.91;6289851;27;96972;-72
2023/10/19 09:46:12;;;;;;;;;26.00;25.00;;;;;15.33;100.00;97482.50;6272041;27;96242;-72
2023/10/19 09:49:15;;;;;;;;;32.75;29.25;;;;;15.22;100.00;97477.44;6289883;27;96442;-71
2023/10/19 09:52:20;;;;;;;;;28.00;27.00;;;;;15.06;100.00;97465.91;6271407;27;96306;-71
2023/10/19 09:55:30;;;;;;;;;32.60;29.00;;;;;15.00;100.00;97459.72;6270888;27;96867;-72
2023/10/19 09:58:38;;;;;;;;;31.40;29.60;;;;;14.85;100.00;97454.44;6289665;27;96354;-71
2023/10/19 10:02:08;;;;;;;;;30.00;29.00;;;;;14.77;100.00;97454.22;6254641;27;96892;-71
2023/10/19 10:05:44;;;;;;;;;27.25;25.25;;;;;14.69;100.00;97456.47;6261577;27;99691;-71
2023/10/19 10:08:49;;;;;;;;;33.00;29.80;;;;;14.61;100.00;97450.84;6276491;27;96835;-71
2023/10/19 10:11:53;;;;;;;;;32.00;28.80;;;;;14.57;100.00;97447.84;6287217;27;96935;-69
2023/10/19 10:15:02;;;;;;;;;32.60;30.60;;;;;14.61;100.00;97450.84;6279479;27;96413;-71
2023/10/19 10:18:14;;;;;;;;;31.67;29.00;;;;;14.63;100.00;97443.22;6289381;27;96505;-71
2023/10/19 10:21:20;;;;;;;;;34.50;31.50;;;;;14.61;100.00;97435.34;6270979;27;96440;-72
2023/10/19 10:24:27;;;;;;;;;28.00;27.00;;;;;14.58;100.00;97437.81;6289568;27;96347;-71
2023/10/19 10:27:30;;;;;;;;;33.00;30.00;;;;;14.68;100.00;97435.03;6253689;27;97126;-71
2023/10/19 10:30:33;;;;;;;;;30.20;28.80;;;;;14.68;100.00;97413.34;6267216;27;97184;-71
2023/10/19 10:33:41;;;;;;;;;32.20;29.20;;;;;14.66;100.00;97400.03;6265792;27;98395;-71
2023/10/19 10:37:02;;;;;;;;;31.80;28.80;;;;;14.58;100.00;97389.00;6266690;27;97077;-71
2023/10/19 10:40:09;;;;;;;;;33.60;30.00;;;;;14.55;100.00;97389.59;6264741;27;96567;-70
2023/10/19 10:43:12;;;;;;;;;31.40;29.40;;;;;14.49;100.00;97379.84;6285278;27;96528;-70
2023/10/19 10:46:15;;;;;;;;;34.40;30.00;;;;;14.55;100.00;97384.97;6285439;27;96566;-70
2023/10/19 10:49:20;;;;;;;;;35.25;32.00;;;;;14.62;100.00;97382.72;6267153;27;97039;-70
2023/10/19 10:52:28;;;;;;;;;32.60;31.00;;;;;14.65;100.00;97381.38;6287190;27;96871;-70
2023/10/19 10:55:34;;;;;;;;;32.60;30.00;;;;;14.64;100.00;97358.84;6266360;27;98442;-71
2023/10/19 10:58:37;;;;;;;;;34.40;31.80;;;;;14.76;100.00;97368.53;6268950;27;96895;-71
2023/10/19 11:01:41;;;;;;;;;36.40;32.00;;;;;14.85;100.00;97350.53;6284571;27;97685;-71
2023/10/19 11:04:46;;;;;;;;;34.00;31.60;;;;;14.97;100.00;97354.47;6250440;27;98454;-70
2023/10/19 11:08:06;;;;;;;;;34.75;30.00;;;;;15.08;100.00;97341.59;6251488;27;98977;-70
2023/10/19 11:11:11;;;;;;;;;33.40;30.00;;;;;15.16;100.00;97338.25;6268637;27;96487;-71
2023/10/19 11:14:15;;;;;;;;;37.60;32.00;;;;;15.25;100.00;97328.38;6269995;27;96803;-71
2023/10/19 11:17:18;;;;;;;;;36.40;32.40;;;;;15.35;100.00;97319.28;6287047;27;96486;-71
2023/10/19 11:20:23;;;;;;;;;34.60;32.00;;;;;15.40;100.00;97319.22;6286803;27;96247;-69
2023/10/19 11:23:36;;;;;;;;;24.20;23.00;;;;;15.45;100.00;97316.44;6286917;27;97112;-69
2023/10/19 11:26:42;;;;;;;;;33.20;30.00;;;;;15.50;100.00;97305.53;6286107;27;97328;-69
2023/10/19 11:29:55;;;;;;;;;32.75;30.25;;;;;15.52;100.00;97287.06;6285711;27;96709;-68
2023/10/19 11:33:01;;;;;;;;;31.60;26.00;;;;;15.62;100.00;97288.84;6270642;27;96670;-68
2023/10/19 11:36:04;;;;;;;;;32.50;30.00;;;;;15.64;100.00;97282.00;6284736;27;98253;-69
2023/10/19 11:39:11;;;;;;;;;34.00;31.00;;;;;15.84;100.00;97291.78;6285289;27;96510;-69
2023/10/19 11:42:16;;;;;;;;;34.00;31.50;;;;;15.80;100.00;97285.31;6242549;27;96682;-68
2023/10/19 11:45:20;;;;;;;;;33.60;31.00;;;;;15.76;100.00;97285.09;6286833;27;96660;-69
2023/10/19 11:48:23;;;;;;;;;34.60;32.40;;;;;15.83;100.00;97274.66;6269538;27;96290;-69
2023/10/19 11:51:27;;;;;;;;;34.50;31.00;;;;;15.85;100.00;97280.63;6287694;27;96808;-69
2023/10/19 11:54:31;;;;;;;;;34.00;31.00;;;;;15.86;100.00;97273.28;6286018;27;96496;-69
2023/10/19 11:57:36;;;;;;;;;33.40;30.40;;;;;15.84;100.00;97275.47;6287224;27;96867;-68
2023/10/19 12:00:39;;;;;;;;;34.60;30.60;;;;;15.85;100.00;97249.91;6273503;27;96937;-68
2023/10/19 12:03:45;;;;;;;;;34.25;31.25;;;;;15.89;100.00;97253.66;6262344;27;96377;-68
2023/10/19 12:06:49;;;;;;;;;34.40;31.20;;;;;15.99;100.00;97254.31;6284677;27;96321;-68
2023/10/19 12:09:52;;;;;;;;;38.40;33.40;;;;;16.07;100.00;97252.84;6286204;27;96677;-68
2023/10/19 12:12:56;;;;;;;;;35.33;31.00;;;;;16.15;100.00;97237.75;6278853;27;97342;-69
2023/10/19 12:16:04;;;;;;;;;34.50;31.75;;;;;16.18;100.00;97229.00;6264974;27;97493;-69
2023/10/19 12:19:08;;;;;;;;;31.00;29.50;;;;;16.25;100.00;97224.00;6265639;27;96442;-70
2023/10/19 12:22:11;;;;;;;;;34.75;31.50;;;;;16.19;100.00;97220.56;6284391;27;96461;-69
2023/10/19 12:25:15;;;;;;;;;35.40;32.00;;;;;16.26;100.00;97217.44;6279307;27;96515;-70
2023/10/19 12:28:20;;;;;;;;;33.60;31.60;;;;;16.23;100.00;97210.69;6282379;27;97176;-69
2023/10/19 12:31:23;;;;;;;;;34.40;32.00;;;;;16.27;100.00;97210.91;6283142;27;96452;-70
2023/10/19 12:34:29;;;;;;;;;33.40;30.00;;;;;16.29;100.00;97201.34;6264232;27;96750;-70
2023/10/19 12:37:33;;;;;;;;;34.50;32.00;;;;;16.31;100.00;97201.84;6281154;27;96893;-69
2023/10/19 12:40:37;;;;;;;;;35.00;32.00;;;;;16.32;100.00;97206.16;6277867;27;96973;-70
2023/10/19 12:43:41;;;;;;;;;31.20;29.20;;;;;16.29;100.00;97197.81;6280033;27;97085;-69
2023/10/19 12:46:45;;;;;;;;;33.00;30.40;;;;;16.31;100.00;97201.84;6287050;27;96594;-70
2023/10/19 12:49:50;;;;;;;;;32.20;30.00;;;;;16.27;100.00;97200.81;6287701;27;96515;-69
2023/10/19 12:52:55;;;;;;;;;34.40;31.40;;;;;16.30;100.00;97208.41;6263259;27;96725;-70
2023/10/19 12:55:59;;;;;;;;;41.50;35.25;;;;;16.32;100.00;97206.16;6279395;27;97013;-70
2023/10/19 12:59:06;;;;;;;;;31.40;28.40;;;;;16.12;100.00;97176.66;6288425;27;96666;-71
2023/10/19 13:02:09;;;;;;;;;31.40;30.40;;;;;16.31;100.00;97204.59;6306954;27;96272;-70
2023/10/19 13:05:18;;;;;;;;;33.40;29.00;;;;;16.20;100.00;97186.00;6289317;27;96680;-70
2023/10/19 13:08:21;;;;;;;;;35.40;31.00;;;;;16.30;100.00;97194.81;6284364;27;96646;-71
2023/10/19 13:11:24;;;;;;;;;33.60;30.00;;;;;16.33;100.00;97206.97;6287416;27;96877;-70
2023/10/19 13:14:28;;;;;;;;;29.40;26.40;;;;;16.35;100.00;97202.88;6286572;27;96228;-70
2023/10/19 13:17:32;;;;;;;;;32.80;30.80;;;;;16.37;100.00;97191.69;6281675;27;96783;-70
2023/10/19 13:20:36;;;;;;;;;29.25;28.25;;;;;16.38;100.00;97196.81;6287918;27;96782;-70
2023/10/19 13:23:40;;;;;;;;;33.50;30.50;;;;;16.39;100.00;97186.75;6293273;27;97207;-70
2023/10/19 13:26:46;;;;;;;;;31.40;30.00;;;;;16.36;100.00;97174.56;6277503;27;98519;-69
2023/10/19 13:29:51;;;;;;;;;34.40;30.00;;;;;16.19;100.00;97179.75;6304336;27;96838;-70
2023/10/19 13:32:54;;;;;;;;;36.80;32.00;;;;;15.98;100.00;97173.06;6285169;27;96465;-70
2023/10/19 13:35:58;;;;;;;;;32.20;30.00;;;;;15.91;100.00;97176.19;6274377;27;96520;-70
2023/10/19 13:39:01;;;;;;;;;38.80;33.00;;;;;15.88;100.00;97179.47;6275859;27;96359;-69
2023/10/19 13:42:06;;;;;;;;;39.60;33.60;;;;;15.94;100.00;97182.91;6276698;27;97048;-69
2023/10/19 13:45:14;;;;;;;;;35.20;31.60;;;;;15.95;100.00;97174.47;6280876;27;96747;-69
2023/10/19 13:48:17;;;;;;;;;38.00;33.00;;;;;15.94;100.00;97167.41;6259082;27;98493;-69
2023/10/19 13:51:20;;;;;;;;;40.00;33.40;;;;;15.95;100.00;97169.03;6295771;27;96392;-70
2023/10/19 13:54:24;;;;;;;;;39.00;33.00;;;;;15.97;100.00;97161.41;6294313;27;96673;-69
2023/10/19 13:57:27;;;;;;;;;37.00;32.00;;;;;16.04;100.00;97158.28;6298155;27;96341;-70
2023/10/19 14:00:35;;;;;;;;;35.00;32.00;;;;;16.03;100.00;97146.59;6279420;27;97022;-69
2023/10/19 14:03:38;;;;;;;;;36.60;33.20;;;;;16.10;100.00;97148.94;6293361;27;96723;-69
2023/10/19 14:06:43;;;;;;;;;41.40;34.20;;;;;16.14;100.00;97141.78;6289149;27;96738;-69
2023/10/19 14:09:46;;;;;;;;;36.80;32.80;;;;;16.03;100.00;97122.13;6274675;27;96300;-69
2023/10/19 14:12:49;;;;;;;;;39.25;32.25;;;;;16.14;100.00;97144.50;6264865;27;96773;-69
2023/10/19 14:15:57;;;;;;;;;41.60;36.00;;;;;16.12;100.00;97132.34;6262959;27;97318;-69